sensor_id;sensor_type;location;lat;lon;timestamp;temperature;humidity
64796;DHT22;51229;51.980;6.722;2022-12-29T00:02:05;6.50;99.90
64796;DHT22;51229;51.980;6.722;2022-12-29T00:04:30;6.50;99.90
64796;DHT22;51229;51.980;6.722;2022-12-29T00:06:56;6.50;99.90
64796;DHT22;51229;51.980;6.722;2022-12-29T00:09:22;6.40;99.90
64796;DHT22;51229;51.980;6.722;2022-12-29T00:11:48;6.50;99.90
64796;DHT22;51229;51.980;6.722;2022-12-29T00:14:15;6.60;99.90
64796;DHT22;51229;51.980;6.722;2022-12-29T00:17:00;6.60;99.90
64796;DHT22;51229;51.980;6.722;2022-12-29T00:19:26;6.60;99.90
64796;DHT22;51229;51.980;6.722;2022-12-29T00:22:12;6.60;99.90
64796;DHT22;51229;51.980;6.722;2022-12-29T00:24:57;6.50;99.90
64796;DHT22;51229;51.980;6.722;2022-12-29T00:27:41;6.50;99.90
64796;DHT22;51229;51.980;6.722;2022-12-29T00:30:25;6.40;99.90
64796;DHT22;51229;51.980;6.722;2022-12-29T00:33:11;6.60;99.90
64796;DHT22;51229;51.980;6.722;2022-12-29T00:36:20;6.50;99.90
64796;DHT22;51229;51.980;6.722;2022-12-29T00:39:09;6.70;99.90
64796;DHT22;51229;51.980;6.722;2022-12-29T00:41:54;6.70;99.90
64796;DHT22;51229;51.980;6.722;2022-12-29T00:44:39;6.70;99.90
64796;DHT22;51229;51.980;6.722;2022-12-29T00:47:04;6.70;99.90
64796;DHT22;51229;51.980;6.722;2022-12-29T00:49:31;6.60;99.90
64796;DHT22;51229;51.980;6.722;2022-12-29T00:52:01;6.50;99.90
64796;DHT22;51229;51.980;6.722;2022-12-29T00:54:32;6.50;99.90
64796;DHT22;51229;51.980;6.722;2022-12-29T00:56:58;6.40;99.90
64796;DHT22;51229;51.980;6.722;2022-12-29T00:59:24;6.20;99.90
64796;DHT22;51229;51.980;6.722;2022-12-29T01:01:51;6.20;99.90
64796;DHT22;51229;51.980;6.722;2022-12-29T01:04:20;6.20;99.90
64796;DHT22;51229;51.980;6.722;2022-12-29T01:06:46;6.20;99.90
64796;DHT22;51229;51.980;6.722;2022-12-29T01:09:15;6.10;99.90
64796;DHT22;51229;51.980;6.722;2022-12-29T01:12:03;6.10;99.90
64796;DHT22;51229;51.980;6.722;2022-12-29T01:14:37;5.90;99.90
64796;DHT22;51229;51.980;6.722;2022-12-29T01:17:06;5.90;99.90
64796;DHT22;51229;51.980;6.722;2022-12-29T01:19:38;6.00;99.90
64796;DHT22;51229;51.980;6.722;2022-12-29T01:22:07;6.10;99.90
64796;DHT22;51229;51.980;6.722;2022-12-29T01:24:32;6.00;99.90
64796;DHT22;51229;51.980;6.722;2022-12-29T01:26:58;5.80;99.90
64796;DHT22;51229;51.980;6.722;2022-12-29T01:29:24;5.80;99.90
64796;DHT22;51229;51.980;6.722;2022-12-29T01:31:50;5.90;99.90
64796;DHT22;51229;51.980;6.722;2022-12-29T01:34:15;5.80;99.90
64796;DHT22;51229;51.980;6.722;2022-12-29T01:36:41;5.80;99.90
64796;DHT22;51229;51.980;6.722;2022-12-29T01:39:06;5.90;99.90
64796;DHT22;51229;51.980;6.722;2022-12-29T01:41:32;6.00;99.90
64796;DHT22;51229;51.980;6.722;2022-12-29T01:43:59;5.90;99.90
64796;DHT22;51229;51.980;6.722;2022-12-29T01:46:47;5.80;99.90
64796;DHT22;51229;51.980;6.722;2022-12-29T01:49:18;6.00;99.90
64796;DHT22;51229;51.980;6.722;2022-12-29T01:52:02;6.00;99.90
64796;DHT22;51229;51.980;6.722;2022-12-29T01:54:39;6.00;99.90
64796;DHT22;51229;51.980;6.722;2022-12-29T01:57:13;6.10;99.90
64796;DHT22;51229;51.980;6.722;2022-12-29T01:59:45;5.90;99.90
64796;DHT22;51229;51.980;6.722;2022-12-29T02:02:11;6.10;99.90
64796;DHT22;51229;51.980;6.722;2022-12-29T02:04:40;6.10;99.90
64796;DHT22;51229;51.980;6.722;2022-12-29T02:07:15;6.10;99.90
64796;DHT22;51229;51.980;6.722;2022-12-29T02:09:42;6.20;99.90
64796;DHT22;51229;51.980;6.722;2022-12-29T02:12:09;6.20;99.90
64796;DHT22;51229;51.980;6.722;2022-12-29T02:14:35;6.10;99.90
64796;DHT22;51229;51.980;6.722;2022-12-29T02:23:01;6.20;99.90
64796;DHT22;51229;51.980;6.722;2022-12-29T02:32:01;6.40;99.90
64796;DHT22;51229;51.980;6.722;2022-12-29T02:43:03;6.70;99.90
64796;DHT22;51229;51.980;6.722;2022-12-29T02:45:42;6.50;99.90
64796;DHT22;51229;51.980;6.722;2022-12-29T02:48:20;6.50;99.90
64796;DHT22;51229;51.980;6.722;2022-12-29T02:50:54;6.60;99.90
64796;DHT22;51229;51.980;6.722;2022-12-29T02:53:24;6.60;99.90
64796;DHT22;51229;51.980;6.722;2022-12-29T02:56:09;6.60;99.90
64796;DHT22;51229;51.980;6.722;2022-12-29T02:58:34;6.50;99.90
64796;DHT22;51229;51.980;6.722;2022-12-29T03:06:55;6.60;99.90
64796;DHT22;51229;51.980;6.722;2022-12-29T03:09:52;6.60;99.90
64796;DHT22;51229;51.980;6.722;2022-12-29T03:15:21;6.80;99.90
64796;DHT22;51229;51.980;6.722;2022-12-29T03:18:25;6.90;99.90
64796;DHT22;51229;51.980;6.722;2022-12-29T03:20:58;6.80;99.90
64796;DHT22;51229;51.980;6.722;2022-12-29T03:23:27;6.90;99.90
64796;DHT22;51229;51.980;6.722;2022-12-29T03:25:57;6.90;99.90
64796;DHT22;51229;51.980;6.722;2022-12-29T03:29:13;7.00;99.90
64796;DHT22;51229;51.980;6.722;2022-12-29T03:31:25;7.00;99.90
64796;DHT22;51229;51.980;6.722;2022-12-29T03:33:53;6.80;99.90
64796;DHT22;51229;51.980;6.722;2022-12-29T03:36:28;6.90;99.90
64796;DHT22;51229;51.980;6.722;2022-12-29T03:39:03;6.90;99.90
64796;DHT22;51229;51.980;6.722;2022-12-29T03:41:32;6.90;99.90
64796;DHT22;51229;51.980;6.722;2022-12-29T03:44:01;6.80;99.90
64796;DHT22;51229;51.980;6.722;2022-12-29T03:46:27;7.00;99.90
64796;DHT22;51229;51.980;6.722;2022-12-29T03:48:52;6.80;99.90
64796;DHT22;51229;51.980;6.722;2022-12-29T03:51:18;6.80;99.90
64796;DHT22;51229;51.980;6.722;2022-12-29T03:53:44;6.80;99.90
64796;DHT22;51229;51.980;6.722;2022-12-29T03:56:10;6.90;99.90
64796;DHT22;51229;51.980;6.722;2022-12-29T03:58:36;6.90;99.90
64796;DHT22;51229;51.980;6.722;2022-12-29T04:01:11;6.90;99.90
64796;DHT22;51229;51.980;6.722;2022-12-29T04:03:38;7.00;99.90
64796;DHT22;51229;51.980;6.722;2022-12-29T04:06:04;7.00;99.90
64796;DHT22;51229;51.980;6.722;2022-12-29T04:08:38;6.90;99.90
64796;DHT22;51229;51.980;6.722;2022-12-29T04:11:05;6.80;99.90
64796;DHT22;51229;51.980;6.722;2022-12-29T04:13:31;6.80;99.90
64796;DHT22;51229;51.980;6.722;2022-12-29T04:15:57;6.80;99.90
64796;DHT22;51229;51.980;6.722;2022-12-29T04:18:22;6.80;99.90
64796;DHT22;51229;51.980;6.722;2022-12-29T04:20:48;6.70;99.90
64796;DHT22;51229;51.980;6.722;2022-12-29T04:23:27;6.70;99.90
64796;DHT22;51229;51.980;6.722;2022-12-29T04:25:53;6.40;99.90
64796;DHT22;51229;51.980;6.722;2022-12-29T04:28:19;6.20;99.90
64796;DHT22;51229;51.980;6.722;2022-12-29T04:30:56;6.20;99.90
64796;DHT22;51229;51.980;6.722;2022-12-29T04:33:25;6.10;99.90
64796;DHT22;51229;51.980;6.722;2022-12-29T04:35:52;6.10;99.90
64796;DHT22;51229;51.980;6.722;2022-12-29T04:38:20;6.00;99.90
64796;DHT22;51229;51.980;6.722;2022-12-29T04:40:49;6.10;99.90
64796;DHT22;51229;51.980;6.722;2022-12-29T04:43:17;6.00;99.90
64796;DHT22;51229;51.980;6.722;2022-12-29T04:46:05;6.10;99.90
64796;DHT22;51229;51.980;6.722;2022-12-29T04:48:57;6.00;99.90
64796;DHT22;51229;51.980;6.722;2022-12-29T04:51:38;6.10;99.90
64796;DHT22;51229;51.980;6.722;2022-12-29T04:54:07;6.10;99.90
64796;DHT22;51229;51.980;6.722;2022-12-29T04:56:34;5.90;99.90
64796;DHT22;51229;51.980;6.722;2022-12-29T04:59:00;6.00;99.90
64796;DHT22;51229;51.980;6.722;2022-12-29T05:01:26;5.90;99.90
64796;DHT22;51229;51.980;6.722;2022-12-29T05:03:52;5.90;99.90
64796;DHT22;51229;51.980;6.722;2022-12-29T05:06:19;5.80;99.90
64796;DHT22;51229;51.980;6.722;2022-12-29T05:08:45;5.80;99.90
64796;DHT22;51229;51.980;6.722;2022-12-29T05:11:11;5.70;99.90
64796;DHT22;51229;51.980;6.722;2022-12-29T05:13:36;5.70;99.90
64796;DHT22;51229;51.980;6.722;2022-12-29T05:16:03;5.70;99.90
64796;DHT22;51229;51.980;6.722;2022-12-29T05:18:29;5.60;99.90
64796;DHT22;51229;51.980;6.722;2022-12-29T05:20:54;5.70;99.90
64796;DHT22;51229;51.980;6.722;2022-12-29T05:23:22;5.70;99.90
64796;DHT22;51229;51.980;6.722;2022-12-29T05:25:56;5.70;99.90
64796;DHT22;51229;51.980;6.722;2022-12-29T05:28:47;5.70;99.90
64796;DHT22;51229;51.980;6.722;2022-12-29T05:31:17;5.70;99.90
64796;DHT22;51229;51.980;6.722;2022-12-29T05:33:43;5.70;99.90
64796;DHT22;51229;51.980;6.722;2022-12-29T05:36:13;5.80;99.90
64796;DHT22;51229;51.980;6.722;2022-12-29T05:38:43;5.70;99.90
64796;DHT22;51229;51.980;6.722;2022-12-29T05:41:09;5.80;99.90
64796;DHT22;51229;51.980;6.722;2022-12-29T05:43:54;5.80;99.90
64796;DHT22;51229;51.980;6.722;2022-12-29T05:46:32;5.70;99.90
64796;DHT22;51229;51.980;6.722;2022-12-29T05:49:16;5.70;99.90
64796;DHT22;51229;51.980;6.722;2022-12-29T05:51:54;5.70;99.90
64796;DHT22;51229;51.980;6.722;2022-12-29T05:54:21;5.80;99.90
64796;DHT22;51229;51.980;6.722;2022-12-29T05:56:48;5.70;99.90
64796;DHT22;51229;51.980;6.722;2022-12-29T05:59:14;5.90;99.90
64796;DHT22;51229;51.980;6.722;2022-12-29T06:01:41;5.80;99.90
64796;DHT22;51229;51.980;6.722;2022-12-29T06:04:07;5.80;99.90
64796;DHT22;51229;51.980;6.722;2022-12-29T06:06:33;5.80;99.90
64796;DHT22;51229;51.980;6.722;2022-12-29T06:08:59;5.80;99.90
64796;DHT22;51229;51.980;6.722;2022-12-29T06:11:26;5.80;99.90
64796;DHT22;51229;51.980;6.722;2022-12-29T06:13:55;5.90;99.90
64796;DHT22;51229;51.980;6.722;2022-12-29T06:16:22;5.80;99.90
64796;DHT22;51229;51.980;6.722;2022-12-29T06:18:52;5.90;99.90
64796;DHT22;51229;51.980;6.722;2022-12-29T06:21:17;5.80;99.90
64796;DHT22;51229;51.980;6.722;2022-12-29T06:23:43;5.80;99.90
64796;DHT22;51229;51.980;6.722;2022-12-29T06:26:09;5.70;99.90
64796;DHT22;51229;51.980;6.722;2022-12-29T06:28:34;5.70;99.90
64796;DHT22;51229;51.980;6.722;2022-12-29T06:31:00;5.60;99.90
64796;DHT22;51229;51.980;6.722;2022-12-29T06:33:29;5.70;99.90
64796;DHT22;51229;51.980;6.722;2022-12-29T06:35:54;5.60;99.90
64796;DHT22;51229;51.980;6.722;2022-12-29T06:38:20;5.60;99.90
64796;DHT22;51229;51.980;6.722;2022-12-29T06:40:46;5.50;99.90
64796;DHT22;51229;51.980;6.722;2022-12-29T06:43:20;5.50;99.90
64796;DHT22;51229;51.980;6.722;2022-12-29T06:46:09;5.50;99.90
64796;DHT22;51229;51.980;6.722;2022-12-29T06:48:34;5.60;99.90
64796;DHT22;51229;51.980;6.722;2022-12-29T06:51:00;5.60;99.90
64796;DHT22;51229;51.980;6.722;2022-12-29T06:53:26;5.50;99.90
64796;DHT22;51229;51.980;6.722;2022-12-29T06:55:52;5.60;99.90
64796;DHT22;51229;51.980;6.722;2022-12-29T06:58:18;5.70;99.90
64796;DHT22;51229;51.980;6.722;2022-12-29T07:00:43;5.60;99.90
64796;DHT22;51229;51.980;6.722;2022-12-29T07:03:09;5.60;99.90
64796;DHT22;51229;51.980;6.722;2022-12-29T07:05:35;5.60;99.90
64796;DHT22;51229;51.980;6.722;2022-12-29T07:08:00;5.50;99.90
64796;DHT22;51229;51.980;6.722;2022-12-29T07:10:26;5.50;99.90
64796;DHT22;51229;51.980;6.722;2022-12-29T07:12:52;5.70;99.90
64796;DHT22;51229;51.980;6.722;2022-12-29T07:15:18;5.60;99.90
64796;DHT22;51229;51.980;6.722;2022-12-29T07:17:43;5.60;99.90
64796;DHT22;51229;51.980;6.722;2022-12-29T07:20:09;5.70;99.90
64796;DHT22;51229;51.980;6.722;2022-12-29T07:22:35;5.70;99.90
64796;DHT22;51229;51.980;6.722;2022-12-29T07:25:01;5.70;99.90
64796;DHT22;51229;51.980;6.722;2022-12-29T07:27:28;5.70;99.90
64796;DHT22;51229;51.980;6.722;2022-12-29T07:29:54;5.80;99.90
64796;DHT22;51229;51.980;6.722;2022-12-29T07:32:20;6.00;99.90
64796;DHT22;51229;51.980;6.722;2022-12-29T07:34:45;5.80;99.90
64796;DHT22;51229;51.980;6.722;2022-12-29T07:37:14;5.80;99.90
64796;DHT22;51229;51.980;6.722;2022-12-29T07:39:40;5.90;99.90
64796;DHT22;51229;51.980;6.722;2022-12-29T07:42:06;5.80;99.90
64796;DHT22;51229;51.980;6.722;2022-12-29T07:44:43;5.80;99.90
64796;DHT22;51229;51.980;6.722;2022-12-29T07:47:15;5.80;99.90
64796;DHT22;51229;51.980;6.722;2022-12-29T07:49:41;5.70;99.90
64796;DHT22;51229;51.980;6.722;2022-12-29T07:52:07;5.70;99.90
64796;DHT22;51229;51.980;6.722;2022-12-29T07:54:33;5.70;99.90
64796;DHT22;51229;51.980;6.722;2022-12-29T07:56:58;5.70;99.90
64796;DHT22;51229;51.980;6.722;2022-12-29T07:59:26;5.70;99.90
64796;DHT22;51229;51.980;6.722;2022-12-29T08:01:52;5.90;99.90
64796;DHT22;51229;51.980;6.722;2022-12-29T08:04:17;5.80;99.90
64796;DHT22;51229;51.980;6.722;2022-12-29T08:06:43;5.80;99.90
64796;DHT22;51229;51.980;6.722;2022-12-29T08:09:10;5.70;99.90
64796;DHT22;51229;51.980;6.722;2022-12-29T08:11:36;5.80;99.90
64796;DHT22;51229;51.980;6.722;2022-12-29T08:14:02;5.90;99.90
64796;DHT22;51229;51.980;6.722;2022-12-29T08:16:28;6.00;99.90
64796;DHT22;51229;51.980;6.722;2022-12-29T08:18:53;5.90;99.90
64796;DHT22;51229;51.980;6.722;2022-12-29T08:21:19;6.00;99.90
64796;DHT22;51229;51.980;6.722;2022-12-29T08:23:45;5.90;99.90
64796;DHT22;51229;51.980;6.722;2022-12-29T08:26:10;6.00;99.90
64796;DHT22;51229;51.980;6.722;2022-12-29T08:28:36;6.00;99.90
64796;DHT22;51229;51.980;6.722;2022-12-29T08:31:02;6.10;99.90
64796;DHT22;51229;51.980;6.722;2022-12-29T08:33:29;6.10;99.90
64796;DHT22;51229;51.980;6.722;2022-12-29T08:36:06;6.10;99.90
64796;DHT22;51229;51.980;6.722;2022-12-29T08:38:32;6.00;99.90
64796;DHT22;51229;51.980;6.722;2022-12-29T08:40:59;6.10;99.90
64796;DHT22;51229;51.980;6.722;2022-12-29T08:43:27;6.10;99.90
64796;DHT22;51229;51.980;6.722;2022-12-29T08:45:53;6.20;99.90
64796;DHT22;51229;51.980;6.722;2022-12-29T08:48:19;6.20;99.90
64796;DHT22;51229;51.980;6.722;2022-12-29T08:50:48;6.00;99.90
64796;DHT22;51229;51.980;6.722;2022-12-29T08:53:14;6.10;99.90
64796;DHT22;51229;51.980;6.722;2022-12-29T08:55:40;6.10;99.90
64796;DHT22;51229;51.980;6.722;2022-12-29T08:58:06;6.00;99.90
64796;DHT22;51229;51.980;6.722;2022-12-29T09:00:34;6.10;99.90
64796;DHT22;51229;51.980;6.722;2022-12-29T09:03:01;6.10;99.90
64796;DHT22;51229;51.980;6.722;2022-12-29T09:05:26;6.00;99.90
64796;DHT22;51229;51.980;6.722;2022-12-29T09:07:52;6.10;99.90
64796;DHT22;51229;51.980;6.722;2022-12-29T09:10:18;6.10;99.90
64796;DHT22;51229;51.980;6.722;2022-12-29T09:12:43;6.10;99.90
64796;DHT22;51229;51.980;6.722;2022-12-29T09:15:09;6.10;99.90
64796;DHT22;51229;51.980;6.722;2022-12-29T09:17:35;6.10;99.90
64796;DHT22;51229;51.980;6.722;2022-12-29T09:20:12;6.10;99.90
64796;DHT22;51229;51.980;6.722;2022-12-29T09:22:39;6.10;99.90
64796;DHT22;51229;51.980;6.722;2022-12-29T09:25:05;6.10;99.90
64796;DHT22;51229;51.980;6.722;2022-12-29T09:27:31;6.90;99.90
64796;DHT22;51229;51.980;6.722;2022-12-29T09:29:57;7.30;99.90
64796;DHT22;51229;51.980;6.722;2022-12-29T09:32:22;7.60;99.90
64796;DHT22;51229;51.980;6.722;2022-12-29T09:34:48;7.70;99.90
64796;DHT22;51229;51.980;6.722;2022-12-29T09:37:14;7.40;99.90
64796;DHT22;51229;51.980;6.722;2022-12-29T09:39:39;7.10;99.90
64796;DHT22;51229;51.980;6.722;2022-12-29T09:45:47;6.90;99.90
64796;DHT22;51229;51.980;6.722;2022-12-29T09:47:53;7.00;99.90
64796;DHT22;51229;51.980;6.722;2022-12-29T09:53:14;6.80;99.90
64796;DHT22;51229;51.980;6.722;2022-12-29T09:56:01;7.20;99.90
64796;DHT22;51229;51.980;6.722;2022-12-29T10:01:05;6.80;99.90
64796;DHT22;51229;51.980;6.722;2022-12-29T10:03:55;6.60;99.90
64796;DHT22;51229;51.980;6.722;2022-12-29T10:06:26;6.30;99.90
64796;DHT22;51229;51.980;6.722;2022-12-29T10:09:29;6.30;99.90
64796;DHT22;51229;51.980;6.722;2022-12-29T10:12:06;6.40;99.90
64796;DHT22;51229;51.980;6.722;2022-12-29T10:17:48;6.60;99.90
64796;DHT22;51229;51.980;6.722;2022-12-29T10:23:02;6.80;99.90
64796;DHT22;51229;51.980;6.722;2022-12-29T10:25:34;7.10;99.90
64796;DHT22;51229;51.980;6.722;2022-12-29T10:28:06;7.00;99.90
64796;DHT22;51229;51.980;6.722;2022-12-29T10:30:35;6.70;99.90
64796;DHT22;51229;51.980;6.722;2022-12-29T10:33:07;6.50;99.90
64796;DHT22;51229;51.980;6.722;2022-12-29T10:35:39;6.30;99.90
64796;DHT22;51229;51.980;6.722;2022-12-29T10:38:25;6.40;99.90
64796;DHT22;51229;51.980;6.722;2022-12-29T10:43:35;6.60;99.90
64796;DHT22;51229;51.980;6.722;2022-12-29T10:46:05;6.40;99.90
64796;DHT22;51229;51.980;6.722;2022-12-29T10:48:34;6.10;99.90
64796;DHT22;51229;51.980;6.722;2022-12-29T10:51:08;6.10;99.90
64796;DHT22;51229;51.980;6.722;2022-12-29T10:53:42;6.10;99.90
64796;DHT22;51229;51.980;6.722;2022-12-29T10:56:33;6.00;99.90
64796;DHT22;51229;51.980;6.722;2022-12-29T10:59:10;6.10;99.90
64796;DHT22;51229;51.980;6.722;2022-12-29T11:07:04;6.10;99.90
64796;DHT22;51229;51.980;6.722;2022-12-29T11:09:34;6.10;99.90
64796;DHT22;51229;51.980;6.722;2022-12-29T11:14:43;6.20;99.90
64796;DHT22;51229;51.980;6.722;2022-12-29T11:17:15;6.20;99.90
64796;DHT22;51229;51.980;6.722;2022-12-29T11:19:40;6.20;99.90
64796;DHT22;51229;51.980;6.722;2022-12-29T11:22:19;6.10;99.90
64796;DHT22;51229;51.980;6.722;2022-12-29T11:24:47;6.10;99.90
64796;DHT22;51229;51.980;6.722;2022-12-29T11:27:22;6.00;99.90
64796;DHT22;51229;51.980;6.722;2022-12-29T11:29:49;6.00;99.90
64796;DHT22;51229;51.980;6.722;2022-12-29T11:34:50;5.80;99.90
64796;DHT22;51229;51.980;6.722;2022-12-29T11:37:27;5.80;99.90
64796;DHT22;51229;51.980;6.722;2022-12-29T11:40:17;5.80;99.90
64796;DHT22;51229;51.980;6.722;2022-12-29T11:42:50;5.90;99.90
64796;DHT22;51229;51.980;6.722;2022-12-29T11:45:31;5.90;99.90
64796;DHT22;51229;51.980;6.722;2022-12-29T11:48:16;6.00;99.90
64796;DHT22;51229;51.980;6.722;2022-12-29T11:50:50;6.10;99.90
64796;DHT22;51229;51.980;6.722;2022-12-29T11:53:26;6.10;99.90
64796;DHT22;51229;51.980;6.722;2022-12-29T11:56:31;6.10;99.90
64796;DHT22;51229;51.980;6.722;2022-12-29T11:58:57;6.20;99.90
64796;DHT22;51229;51.980;6.722;2022-12-29T12:01:34;6.30;99.90
64796;DHT22;51229;51.980;6.722;2022-12-29T12:04:15;6.50;99.90
64796;DHT22;51229;51.980;6.722;2022-12-29T12:06:46;6.50;99.90
64796;DHT22;51229;51.980;6.722;2022-12-29T12:09:22;6.50;99.90
64796;DHT22;51229;51.980;6.722;2022-12-29T12:11:52;6.50;99.90
64796;DHT22;51229;51.980;6.722;2022-12-29T12:14:35;6.40;99.90
64796;DHT22;51229;51.980;6.722;2022-12-29T12:17:23;6.40;99.90
64796;DHT22;51229;51.980;6.722;2022-12-29T12:20:00;6.40;99.90
64796;DHT22;51229;51.980;6.722;2022-12-29T12:22:33;6.40;99.90
64796;DHT22;51229;51.980;6.722;2022-12-29T12:25:04;6.50;99.90
64796;DHT22;51229;51.980;6.722;2022-12-29T12:27:39;6.50;99.90
64796;DHT22;51229;51.980;6.722;2022-12-29T12:30:22;6.50;99.90
64796;DHT22;51229;51.980;6.722;2022-12-29T12:35:43;6.50;99.90
64796;DHT22;51229;51.980;6.722;2022-12-29T12:43:50;6.50;99.90
64796;DHT22;51229;51.980;6.722;2022-12-29T12:46:52;6.50;99.90
64796;DHT22;51229;51.980;6.722;2022-12-29T12:50:07;6.50;99.90
64796;DHT22;51229;51.980;6.722;2022-12-29T12:55:00;6.50;99.90
64796;DHT22;51229;51.980;6.722;2022-12-29T13:00:16;6.80;99.90
64796;DHT22;51229;51.980;6.722;2022-12-29T13:11:02;6.70;99.90
64796;DHT22;51229;51.980;6.722;2022-12-29T13:26:50;6.60;99.90
64796;DHT22;51229;51.980;6.722;2022-12-29T13:29:29;6.60;99.90
64796;DHT22;51229;51.980;6.722;2022-12-29T13:34:48;6.60;99.90
64796;DHT22;51229;51.980;6.722;2022-12-29T13:37:19;6.50;99.90
64796;DHT22;51229;51.980;6.722;2022-12-29T13:39:49;6.60;99.90
64796;DHT22;51229;51.980;6.722;2022-12-29T13:42:18;6.50;99.90
64796;DHT22;51229;51.980;6.722;2022-12-29T13:44:48;6.50;99.90
64796;DHT22;51229;51.980;6.722;2022-12-29T13:47:39;6.40;99.90
64796;DHT22;51229;51.980;6.722;2022-12-29T13:50:14;6.50;99.90
64796;DHT22;51229;51.980;6.722;2022-12-29T13:55:32;6.60;99.90
64796;DHT22;51229;51.980;6.722;2022-12-29T14:03:43;6.60;99.90
64796;DHT22;51229;51.980;6.722;2022-12-29T14:06:27;6.60;99.90
64796;DHT22;51229;51.980;6.722;2022-12-29T14:09:01;6.50;99.90
64796;DHT22;51229;51.980;6.722;2022-12-29T14:11:38;6.50;99.90
64796;DHT22;51229;51.980;6.722;2022-12-29T14:14:24;6.40;99.90
64796;DHT22;51229;51.980;6.722;2022-12-29T14:16:50;6.40;99.90
64796;DHT22;51229;51.980;6.722;2022-12-29T14:19:24;6.50;99.90
64796;DHT22;51229;51.980;6.722;2022-12-29T14:22:03;6.50;99.90
64796;DHT22;51229;51.980;6.722;2022-12-29T14:29:48;6.50;99.90
64796;DHT22;51229;51.980;6.722;2022-12-29T14:34:54;6.40;99.90
64796;DHT22;51229;51.980;6.722;2022-12-29T14:40:46;6.40;99.90
64796;DHT22;51229;51.980;6.722;2022-12-29T14:43:12;6.30;99.90
64796;DHT22;51229;51.980;6.722;2022-12-29T14:45:41;6.40;99.90
64796;DHT22;51229;51.980;6.722;2022-12-29T14:50:55;6.10;99.90
64796;DHT22;51229;51.980;6.722;2022-12-29T14:56:09;5.70;99.90
64796;DHT22;51229;51.980;6.722;2022-12-29T14:58:56;5.60;99.90
64796;DHT22;51229;51.980;6.722;2022-12-29T15:01:28;5.50;99.90
64796;DHT22;51229;51.980;6.722;2022-12-29T15:04:03;5.50;99.90
64796;DHT22;51229;51.980;6.722;2022-12-29T15:06:30;5.40;99.90
64796;DHT22;51229;51.980;6.722;2022-12-29T15:09:10;5.40;99.90
64796;DHT22;51229;51.980;6.722;2022-12-29T15:14:02;5.50;99.90
64796;DHT22;51229;51.980;6.722;2022-12-29T15:16:33;5.60;99.90
64796;DHT22;51229;51.980;6.722;2022-12-29T15:19:01;5.50;99.90
64796;DHT22;51229;51.980;6.722;2022-12-29T15:21:33;5.40;99.90
64796;DHT22;51229;51.980;6.722;2022-12-29T15:24:00;5.50;99.90
64796;DHT22;51229;51.980;6.722;2022-12-29T15:26:38;5.40;99.90
64796;DHT22;51229;51.980;6.722;2022-12-29T15:29:04;5.50;99.90
64796;DHT22;51229;51.980;6.722;2022-12-29T15:31:30;5.50;99.90
64796;DHT22;51229;51.980;6.722;2022-12-29T15:34:09;5.60;99.90
64796;DHT22;51229;51.980;6.722;2022-12-29T15:36:40;5.60;99.90
64796;DHT22;51229;51.980;6.722;2022-12-29T15:39:28;5.50;99.90
64796;DHT22;51229;51.980;6.722;2022-12-29T15:42:16;5.50;99.90
64796;DHT22;51229;51.980;6.722;2022-12-29T15:44:46;5.60;99.90
64796;DHT22;51229;51.980;6.722;2022-12-29T15:47:22;5.60;99.90
64796;DHT22;51229;51.980;6.722;2022-12-29T15:50:02;5.50;99.90
64796;DHT22;51229;51.980;6.722;2022-12-29T15:52:30;5.50;99.90
64796;DHT22;51229;51.980;6.722;2022-12-29T15:54:58;5.50;99.90
64796;DHT22;51229;51.980;6.722;2022-12-29T15:57:31;5.50;99.90
64796;DHT22;51229;51.980;6.722;2022-12-29T16:00:01;5.50;99.90
64796;DHT22;51229;51.980;6.722;2022-12-29T16:02:39;5.50;99.90
64796;DHT22;51229;51.980;6.722;2022-12-29T16:05:12;5.60;99.90
64796;DHT22;51229;51.980;6.722;2022-12-29T16:07:55;5.50;99.90
64796;DHT22;51229;51.980;6.722;2022-12-29T16:12:54;5.50;99.90
64796;DHT22;51229;51.980;6.722;2022-12-29T16:15:20;5.50;99.90
64796;DHT22;51229;51.980;6.722;2022-12-29T16:17:48;5.50;99.90
64796;DHT22;51229;51.980;6.722;2022-12-29T16:20:25;5.50;99.90
64796;DHT22;51229;51.980;6.722;2022-12-29T16:22:58;5.50;99.90
64796;DHT22;51229;51.980;6.722;2022-12-29T16:25:28;5.40;99.90
64796;DHT22;51229;51.980;6.722;2022-12-29T16:27:54;5.40;99.90
64796;DHT22;51229;51.980;6.722;2022-12-29T16:30:29;5.40;99.90
64796;DHT22;51229;51.980;6.722;2022-12-29T16:32:57;5.40;99.90
64796;DHT22;51229;51.980;6.722;2022-12-29T16:35:29;5.40;99.90
64796;DHT22;51229;51.980;6.722;2022-12-29T16:38:17;5.40;99.90
64796;DHT22;51229;51.980;6.722;2022-12-29T16:43:28;5.40;99.90
64796;DHT22;51229;51.980;6.722;2022-12-29T16:48:35;5.40;99.90
64796;DHT22;51229;51.980;6.722;2022-12-29T16:51:32;5.40;99.90
64796;DHT22;51229;51.980;6.722;2022-12-29T16:53:59;5.40;99.90
64796;DHT22;51229;51.980;6.722;2022-12-29T16:56:31;5.40;99.90
64796;DHT22;51229;51.980;6.722;2022-12-29T16:59:25;5.40;99.90
64796;DHT22;51229;51.980;6.722;2022-12-29T17:01:54;5.40;99.90
64796;DHT22;51229;51.980;6.722;2022-12-29T17:04:20;5.40;99.90
64796;DHT22;51229;51.980;6.722;2022-12-29T17:06:46;5.30;99.90
64796;DHT22;51229;51.980;6.722;2022-12-29T17:09:27;5.30;99.90
64796;DHT22;51229;51.980;6.722;2022-12-29T17:11:58;5.30;99.90
64796;DHT22;51229;51.980;6.722;2022-12-29T17:17:36;5.20;99.90
64796;DHT22;51229;51.980;6.722;2022-12-29T17:22:31;5.20;99.90
64796;DHT22;51229;51.980;6.722;2022-12-29T17:24:59;5.20;99.90
64796;DHT22;51229;51.980;6.722;2022-12-29T17:30:09;5.10;99.90
64796;DHT22;51229;51.980;6.722;2022-12-29T17:32:36;5.20;99.90
64796;DHT22;51229;51.980;6.722;2022-12-29T17:35:02;5.10;99.90
64796;DHT22;51229;51.980;6.722;2022-12-29T17:37:34;5.10;99.90
64796;DHT22;51229;51.980;6.722;2022-12-29T17:40:00;5.10;99.90
64796;DHT22;51229;51.980;6.722;2022-12-29T17:42:26;5.00;99.90
64796;DHT22;51229;51.980;6.722;2022-12-29T17:44:52;4.90;99.90
64796;DHT22;51229;51.980;6.722;2022-12-29T17:47:18;5.00;99.90
64796;DHT22;51229;51.980;6.722;2022-12-29T17:49:43;5.00;99.90
64796;DHT22;51229;51.980;6.722;2022-12-29T17:52:15;5.00;99.90
64796;DHT22;51229;51.980;6.722;2022-12-29T17:54:50;4.90;99.90
64796;DHT22;51229;51.980;6.722;2022-12-29T17:57:18;5.00;99.90
64796;DHT22;51229;51.980;6.722;2022-12-29T17:59:44;4.90;99.90
64796;DHT22;51229;51.980;6.722;2022-12-29T18:02:29;4.80;99.90
64796;DHT22;51229;51.980;6.722;2022-12-29T18:04:57;4.90;99.90
64796;DHT22;51229;51.980;6.722;2022-12-29T18:07:26;4.80;99.90
64796;DHT22;51229;51.980;6.722;2022-12-29T18:09:52;4.80;99.90
64796;DHT22;51229;51.980;6.722;2022-12-29T18:12:37;4.80;99.90
64796;DHT22;51229;51.980;6.722;2022-12-29T18:15:04;4.70;99.90
64796;DHT22;51229;51.980;6.722;2022-12-29T18:17:30;4.70;99.90
64796;DHT22;51229;51.980;6.722;2022-12-29T18:19:55;4.70;99.90
64796;DHT22;51229;51.980;6.722;2022-12-29T18:22:25;4.60;99.90
64796;DHT22;51229;51.980;6.722;2022-12-29T18:24:53;4.70;99.90
64796;DHT22;51229;51.980;6.722;2022-12-29T18:27:19;4.60;99.90
64796;DHT22;51229;51.980;6.722;2022-12-29T18:29:47;4.50;99.90
64796;DHT22;51229;51.980;6.722;2022-12-29T18:32:13;4.60;99.90